Time;durP1;ratioP1;P1;durP2;ratioP2;P2;SDS_P1;SDS_P2;PMS_P1;PMS_P2;Temp;Humidity;BMP_temperature;BMP_pressure;BME280_temperature;BME280_humidity;BME280_pressure;Samples;Min_cycle;Max_cycle;Signal;HPM_P1;HPM_P2
2022/06/08 00:01:14;;;;;;;8.27;3.60;;;11.50;99.90;;;;;;4249645;27;20047;-82
2022/06/08 00:03:21;;;;;;;8.73;2.95;;;11.40;99.90;;;;;;4249693;27;20147;-82
2022/06/08 00:05:22;;;;;;;6.78;2.85;;;11.40;99.90;;;;;;4250069;27;20039;-82
2022/06/08 00:07:22;;;;;;;9.18;2.88;;;11.40;99.90;;;;;;4249200;27;20058;-83
2022/06/08 00:09:23;;;;;;;9.48;2.45;;;11.40;99.90;;;;;;4249600;27;20084;-83
2022/06/08 00:11:24;;;;;;;7.05;2.83;;;11.40;99.90;;;;;;4249455;27;20081;-83
2022/06/08 00:13:25;;;;;;;8.43;3.15;;;11.30;99.90;;;;;;4249541;27;20073;-82
2022/06/08 00:15:26;;;;;;;7.45;2.80;;;11.30;99.90;;;;;;4249568;27;20040;-83
2022/06/08 00:17:26;;;;;;;5.72;3.22;;;11.30;99.90;;;;;;4249050;27;20043;-82
2022/06/08 00:19:27;;;;;;;9.65;2.72;;;11.30;99.90;;;;;;4248951;27;20042;-82
2022/06/08 00:21:28;;;;;;;6.05;2.78;;;11.20;99.90;;;;;;4249310;27;20043;-83
2022/06/08 00:23:29;;;;;;;4.65;2.72;;;11.20;99.90;;;;;;4249556;27;20050;-83
2022/06/08 00:25:30;;;;;;;5.72;2.90;;;11.20;99.90;;;;;;4249485;27;20183;-83
2022/06/08 00:27:31;;;;;;;8.25;2.95;;;11.20;99.90;;;;;;4230927;28;20057;-83
2022/06/08 00:29:32;;;;;;;5.82;2.67;;;11.20;99.90;;;;;;4249004;27;20036;-83
2022/06/08 00:31:33;;;;;;;6.60;2.88;;;11.10;99.90;;;;;;4231184;28;20043;-83
2022/06/08 00:33:34;;;;;;;5.97;2.80;;;11.10;99.90;;;;;;4231076;28;20096;-83
2022/06/08 00:35:35;;;;;;;4.75;2.55;;;11.00;99.90;;;;;;4230867;28;20566;-83
2022/06/08 00:37:36;;;;;;;6.45;3.05;;;11.10;99.90;;;;;;4230879;28;20084;-83
2022/06/08 00:39:38;;;;;;;9.70;2.90;;;11.10;99.90;;;;;;4248623;27;20039;-83
2022/06/08 00:41:49;;;;;;;8.20;3.00;;;11.10;99.90;;;;;;4249027;27;20554;-83
2022/06/08 00:43:51;;;;;;;6.18;3.05;;;11.00;99.90;;;;;;4249171;27;20055;-83
2022/06/08 00:45:52;;;;;;;8.07;3.13;;;11.00;99.90;;;;;;4249185;27;20043;-83
2022/06/08 00:48:02;;;;;;;5.45;2.90;;;11.00;99.90;;;;;;4249086;27;20043;-83
2022/06/08 00:50:26;;;;;;;5.75;3.20;;;11.00;99.90;;;;;;4249396;27;20535;-83
2022/06/08 00:52:29;;;;;;;10.48;3.85;;;11.00;99.90;;;;;;4249724;27;20046;-82
2022/06/08 00:54:37;;;;;;;8.60;3.10;;;11.00;99.90;;;;;;4249724;27;20524;-82
2022/06/08 00:56:44;;;;;;;6.35;3.42;;;10.90;99.90;;;;;;4249586;27;20514;-82
2022/06/08 00:58:45;;;;;;;8.60;3.78;;;10.90;99.90;;;;;;4249656;27;20066;-83
2022/06/08 01:00:46;;;;;;;9.63;4.15;;;10.90;99.90;;;;;;4222737;28;20213;-82
2022/06/08 01:02:47;;;;;;;9.77;3.80;;;10.90;99.90;;;;;;4231794;28;20036;-83
2022/06/08 01:04:48;;;;;;;7.45;3.40;;;10.80;99.90;;;;;;4231501;28;20043;-82
2022/06/08 01:06:57;;;;;;;9.63;3.75;;;10.80;99.90;;;;;;4231583;28;20579;-83
2022/06/08 01:08:58;;;;;;;7.82;4.05;;;10.70;99.90;;;;;;4213287;28;20063;-83
2022/06/08 01:11:06;;;;;;;9.65;3.70;;;10.70;99.90;;;;;;4231513;28;20051;-83
2022/06/08 01:13:07;;;;;;;9.00;3.75;;;10.70;99.90;;;;;;4213290;28;20453;-83
2022/06/08 01:15:11;;;;;;;9.80;3.42;;;10.70;99.90;;;;;;4231789;28;20477;-83
2022/06/08 01:17:15;;;;;;;7.20;3.88;;;10.70;99.90;;;;;;4231428;28;20109;-83
2022/06/08 01:19:16;;;;;;;9.40;4.00;;;10.60;99.90;;;;;;4213405;28;20043;-83
2022/06/08 01:21:22;;;;;;;10.38;4.20;;;10.60;99.90;;;;;;4231167;28;20043;-82
2022/06/08 01:23:23;;;;;;;9.18;4.15;;;10.60;99.90;;;;;;4230894;28;20048;-82
2022/06/08 01:25:27;;;;;;;15.02;4.60;;;10.60;99.90;;;;;;4231167;28;20083;-82
2022/06/08 01:27:58;;;;;;;9.45;3.83;;;10.60;99.90;;;;;;4230932;28;20601;-82
2022/06/08 01:30:02;;;;;;;6.97;3.78;;;10.60;99.90;;;;;;4229530;28;20441;-83
2022/06/08 01:32:21;;;;;;;8.38;4.47;;;10.50;99.90;;;;;;4230665;28;20395;-82
2022/06/08 01:34:32;;;;;;;10.50;4.25;;;10.50;99.90;;;;;;4229307;28;20483;-82
2022/06/08 01:36:32;;;;;;;9.88;4.45;;;10.50;99.90;;;;;;4196070;28;20068;-82
2022/06/08 01:38:47;;;;;;;6.68;4.35;;;10.50;99.90;;;;;;4239136;27;20054;-83
2022/06/08 01:41:30;;;;;;;10.23;4.50;;;10.50;99.90;;;;;;4247489;27;20601;-82
2022/06/08 01:44:07;;;;;;;11.02;4.88;;;10.40;99.90;;;;;;4247691;27;20050;-82
2022/06/08 01:46:23;;;;;;;17.17;5.40;;;10.40;99.90;;;;;;4247344;27;20047;-82
2022/06/08 01:49:03;;;;;;;11.32;5.03;;;10.40;99.90;;;;;;4229372;28;20055;-82
2022/06/08 01:51:24;;;;;;;15.88;5.43;;;10.40;99.90;;;;;;4247349;27;20051;-82
2022/06/08 01:53:47;;;;;;;11.35;4.60;;;10.40;99.90;;;;;;4247153;27;20039;-82
2022/06/08 01:56:13;;;;;;;11.20;5.43;;;10.40;99.90;;;;;;4248008;27;20476;-82
2022/06/08 01:58:28;;;;;;;13.23;5.30;;;10.40;99.90;;;;;;4244640;27;20055;-82
2022/06/08 02:00:31;;;;;;;11.80;5.70;;;10.30;99.90;;;;;;4247886;27;20039;-82
2022/06/08 02:02:38;;;;;;;11.68;5.57;;;10.30;99.90;;;;;;4247912;27;20114;-83
2022/06/08 02:05:05;;;;;;;13.30;5.47;;;10.30;99.90;;;;;;4248110;27;20495;-82
2022/06/08 02:07:19;;;;;;;10.07;4.63;;;10.30;99.90;;;;;;4247896;27;20122;-82
2022/06/08 02:09:35;;;;;;;9.93;5.53;;;10.30;99.90;;;;;;4247748;27;20453;-83
2022/06/08 02:11:39;;;;;;;7.80;5.00;;;10.30;99.90;;;;;;4246581;27;20434;-82
2022/06/08 02:13:52;;;;;;;14.95;5.38;;;10.30;99.90;;;;;;4247896;27;20086;-82
2022/06/08 02:16:03;;;;;;;11.48;5.80;;;10.30;99.90;;;;;;4248002;27;20119;-82
2022/06/08 02:18:09;;;;;;;11.80;5.57;;;10.30;99.90;;;;;;4247912;27;20523;-82
2022/06/08 02:20:22;;;;;;;7.50;5.30;;;10.30;99.90;;;;;;4247661;27;20092;-83
2022/06/08 02:22:31;;;;;;;11.98;5.45;;;10.30;99.90;;;;;;4247478;27;20122;-82
2022/06/08 02:24:40;;;;;;;10.00;5.65;;;10.30;99.90;;;;;;4229048;28;20040;-83
2022/06/08 02:26:49;;;;;;;11.25;5.38;;;10.30;99.90;;;;;;4247563;28;20047;-83
2022/06/08 02:28:57;;;;;;;12.85;5.60;;;10.30;99.90;;;;;;4247878;28;20475;-82
2022/06/08 02:31:11;;;;;;;12.40;6.35;;;10.30;99.90;;;;;;4229526;28;20059;-82
2022/06/08 02:35:46;;;;;;;10.60;5.05;;;10.20;99.90;;;;;;4247327;28;20131;-82
2022/06/08 02:37:50;;;;;;;15.35;5.45;;;10.20;99.90;;;;;;4247773;28;20039;-82
2022/06/08 02:39:54;;;;;;;8.50;5.28;;;10.20;99.90;;;;;;4247528;28;20040;-82
2022/06/08 02:41:58;;;;;;;11.48;4.85;;;10.20;99.90;;;;;;4249901;27;20448;-82
2022/06/08 02:44:04;;;;;;;11.75;4.90;;;10.20;99.90;;;;;;4251203;27;20039;-82
2022/06/08 02:46:34;;;;;;;7.65;4.50;;;10.20;99.90;;;;;;4251392;27;20493;-82
2022/06/08 02:48:36;;;;;;;12.40;5.20;;;10.20;99.90;;;;;;4251217;27;20043;-83
2022/06/08 02:50:46;;;;;;;11.52;5.63;;;10.20;99.90;;;;;;4216086;28;20074;-83
2022/06/08 02:52:48;;;;;;;13.27;5.53;;;10.20;99.90;;;;;;4251227;27;20053;-83
2022/06/08 02:54:51;;;;;;;10.98;5.32;;;10.20;99.90;;;;;;4250489;27;20047;-83
2022/06/08 02:56:57;;;;;;;9.52;5.25;;;10.20;99.90;;;;;;4232868;28;20044;-83
2022/06/08 02:59:13;;;;;;;15.52;5.47;;;10.20;99.90;;;;;;4250817;27;20039;-83
2022/06/08 03:01:22;;;;;;;9.38;5.72;;;10.20;99.90;;;;;;4251069;27;20053;-82
2022/06/08 03:03:35;;;;;;;12.80;6.05;;;10.20;99.90;;;;;;4250744;27;20083;-82
2022/06/08 03:05:44;;;;;;;13.82;6.63;;;10.20;99.90;;;;;;4250686;27;20455;-82
2022/06/08 03:07:53;;;;;;;15.55;5.70;;;10.20;99.90;;;;;;4250454;27;20103;-82
2022/06/08 03:09:55;;;;;;;10.07;5.38;;;10.20;99.90;;;;;;4251419;27;20451;-82
2022/06/08 03:12:01;;;;;;;8.25;5.40;;;10.20;99.90;;;;;;4250829;27;20543;-82
2022/06/08 03:14:07;;;;;;;15.85;6.63;;;10.20;99.90;;;;;;4250040;27;20510;-83
2022/06/08 03:16:09;;;;;;;13.63;6.10;;;10.20;99.90;;;;;;4250555;27;20043;-83
2022/06/08 03:18:09;;;;;;;13.60;5.75;;;10.20;99.90;;;;;;4250996;27;20089;-82
2022/06/08 03:20:10;;;;;;;10.68;5.18;;;10.20;99.90;;;;;;4232137;28;20047;-82
2022/06/08 03:22:14;;;;;;;15.90;6.38;;;10.20;99.90;;;;;;4250755;27;20062;-82
2022/06/08 03:24:16;;;;;;;10.50;5.32;;;10.20;99.90;;;;;;4250817;27;20671;-82
2022/06/08 03:26:19;;;;;;;14.80;6.05;;;10.20;99.90;;;;;;4250197;27;20591;-82
2022/06/08 03:28:20;;;;;;;12.52;5.80;;;10.10;99.90;;;;;;4250584;27;20046;-82
2022/06/08 03:30:22;;;;;;;12.48;5.30;;;10.10;99.90;;;;;;4253241;27;20043;-82
2022/06/08 03:32:22;;;;;;;11.90;5.70;;;10.20;99.90;;;;;;4234117;28;20047;-82
2022/06/08 03:34:23;;;;;;;11.07;6.38;;;10.10;99.90;;;;;;4252578;27;20181;-82
2022/06/08 03:36:24;;;;;;;14.93;6.45;;;10.10;99.90;;;;;;4252038;27;20091;-82
2022/06/08 03:38:25;;;;;;;12.93;6.03;;;10.10;99.90;;;;;;4252501;27;20047;-82
2022/06/08 03:40:27;;;;;;;13.68;5.60;;;10.10;99.90;;;;;;4252251;27;20046;-82
2022/06/08 03:42:28;;;;;;;17.13;5.47;;;10.10;99.90;;;;;;4252155;27;20031;-82
2022/06/08 03:44:28;;;;;;;19.48;5.78;;;10.10;99.90;;;;;;4233406;28;20058;-82
2022/06/08 03:46:35;;;;;;;10.77;6.20;;;10.10;99.90;;;;;;4250836;27;20122;-82
2022/06/08 03:48:38;;;;;;;11.88;5.70;;;10.20;99.90;;;;;;4250767;27;20479;-82
2022/06/08 03:50:43;;;;;;;11.60;6.03;;;10.10;99.90;;;;;;4232258;28;20078;-82
2022/06/08 03:52:50;;;;;;;11.18;5.38;;;10.20;99.90;;;;;;4249502;27;20047;-82
2022/06/08 03:54:54;;;;;;;11.52;5.15;;;10.20;99.90;;;;;;4249979;27;20046;-82
2022/06/08 03:57:00;;;;;;;19.25;6.25;;;10.20;99.90;;;;;;4250844;27;20134;-83
2022/06/08 03:59:01;;;;;;;11.95;5.95;;;10.20;99.90;;;;;;4250644;27;20048;-83
2022/06/08 04:01:03;;;;;;;13.20;6.07;;;10.20;99.90;;;;;;4222014;28;20060;-82
2022/06/08 04:03:05;;;;;;;11.35;5.82;;;10.20;99.90;;;;;;4233213;28;20539;-82
2022/06/08 04:05:06;;;;;;;12.00;6.53;;;10.20;99.90;;;;;;4232862;28;20031;-82
2022/06/08 04:07:08;;;;;;;18.30;6.13;;;10.30;99.90;;;;;;4233253;28;20050;-82
2022/06/08 04:09:09;;;;;;;13.52;6.30;;;10.30;99.90;;;;;;4233539;28;20044;-82
2022/06/08 04:11:10;;;;;;;12.95;5.93;;;10.30;99.90;;;;;;4233613;28;20474;-83
2022/06/08 04:13:11;;;;;;;13.23;6.70;;;10.40;99.90;;;;;;4233649;28;20085;-83
2022/06/08 04:15:41;;;;;;;16.98;6.35;;;10.40;99.90;;;;;;4215019;28;20091;-82
2022/06/08 04:17:33;;;;;;;17.00;7.28;;;10.40;99.90;;;;;;4233150;28;20051;-82
2022/06/08 04:19:34;;;;;;;18.48;6.35;;;10.40;99.90;;;;;;4233631;28;20047;-82
2022/06/08 04:21:35;;;;;;;13.35;6.78;;;10.50;99.90;;;;;;4233229;28;20052;-82
2022/06/08 04:23:39;;;;;;;15.25;6.90;;;10.50;99.90;;;;;;4198779;28;20123;-82
2022/06/08 04:25:41;;;;;;;13.23;6.38;;;10.50;99.90;;;;;;4233869;28;20134;-82
2022/06/08 04:27:42;;;;;;;18.88;7.63;;;10.50;99.90;;;;;;4216034;28;20063;-83
2022/06/08 04:29:43;;;;;;;12.23;6.40;;;10.60;99.90;;;;;;4215748;28;20480;-83
2022/06/08 04:31:44;;;;;;;12.38;6.30;;;10.60;99.90;;;;;;4233565;28;20036;-83
2022/06/08 04:33:45;;;;;;;17.17;6.97;;;10.60;99.90;;;;;;4216304;28;20028;-82
2022/06/08 04:35:47;;;;;;;16.17;6.90;;;10.70;99.90;;;;;;4234265;28;20100;-82
2022/06/08 04:37:47;;;;;;;14.43;6.60;;;10.70;99.90;;;;;;4234849;28;20043;-82
2022/06/08 04:39:48;;;;;;;15.15;7.70;;;10.70;99.90;;;;;;4234479;28;20043;-82
2022/06/08 04:41:49;;;;;;;16.75;7.82;;;10.80;99.90;;;;;;4241204;27;20036;-82
2022/06/08 04:43:50;;;;;;;14.93;7.22;;;10.90;99.90;;;;;;4250242;27;20087;-82
2022/06/08 04:45:52;;;;;;;14.57;6.43;;;10.90;99.90;;;;;;4251028;27;20046;-82
2022/06/08 04:47:53;;;;;;;14.18;6.78;;;11.10;99.90;;;;;;4250920;27;20050;-82
2022/06/08 04:49:54;;;;;;;13.07;6.60;;;11.20;99.90;;;;;;4251441;27;20043;-82
2022/06/08 04:51:55;;;;;;;21.15;7.05;;;11.20;99.90;;;;;;4232552;28;20051;-82
2022/06/08 04:53:56;;;;;;;15.75;8.07;;;11.40;99.90;;;;;;4251355;27;20086;-82
2022/06/08 04:55:56;;;;;;;22.63;8.20;;;11.40;99.90;;;;;;4232642;28;20093;-82
2022/06/08 04:57:58;;;;;;;14.00;7.03;;;11.50;99.90;;;;;;4252545;27;20058;-82
2022/06/08 04:59:59;;;;;;;16.13;6.65;;;11.60;99.90;;;;;;4251833;27;20488;-82
2022/06/08 05:02:00;;;;;;;13.88;7.05;;;11.60;99.90;;;;;;4233283;28;20036;-82
2022/06/08 05:04:00;;;;;;;16.23;7.90;;;11.70;99.90;;;;;;4250399;27;20043;-81
2022/06/08 05:06:02;;;;;;;17.80;7.43;;;11.80;99.90;;;;;;4251984;27;20406;-82
2022/06/08 05:08:05;;;;;;;14.68;7.28;;;11.90;99.90;;;;;;4252183;27;20039;-82
2022/06/08 05:10:06;;;;;;;16.30;7.70;;;12.00;99.90;;;;;;4251111;27;20050;-82
2022/06/08 05:12:07;;;;;;;15.65;8.70;;;12.20;99.90;;;;;;4250663;27;20056;-82
2022/06/08 05:14:08;;;;;;;19.13;8.93;;;12.30;99.90;;;;;;4250859;27;20039;-83
2022/06/08 05:16:09;;;;;;;14.52;8.23;;;12.40;99.90;;;;;;4251334;27;20122;-83
2022/06/08 05:18:11;;;;;;;14.65;7.75;;;12.50;99.90;;;;;;4251278;27;20047;-83
2022/06/08 05:20:14;;;;;;;16.05;7.93;;;12.50;99.90;;;;;;4253130;27;20115;-83
2022/06/08 05:22:14;;;;;;;18.95;8.82;;;12.60;99.90;;;;;;4251640;27;20062;-83
2022/06/08 05:24:15;;;;;;;16.48;8.52;;;12.60;99.90;;;;;;4251046;27;20495;-83
2022/06/08 05:26:17;;;;;;;21.58;9.18;;;12.70;99.90;;;;;;4251033;27;20046;-83
2022/06/08 05:28:17;;;;;;;18.13;9.20;;;12.70;99.90;;;;;;4251552;27;20065;-81
2022/06/08 05:30:18;;;;;;;17.75;9.52;;;12.70;99.90;;;;;;4252841;27;20122;-83
2022/06/08 05:32:20;;;;;;;26.75;10.90;;;12.70;99.90;;;;;;4233818;28;20074;-83
2022/06/08 05:34:20;;;;;;;21.83;10.15;;;12.70;99.90;;;;;;4252674;27;20095;-82
2022/06/08 05:36:22;;;;;;;23.38;9.77;;;12.80;99.90;;;;;;4233161;28;20492;-82
2022/06/08 05:38:23;;;;;;;20.42;10.15;;;12.80;99.90;;;;;;4233445;28;20420;-82
2022/06/08 05:40:28;;;;;;;22.25;10.50;;;12.80;99.90;;;;;;4253148;27;20039;-82
2022/06/08 05:42:29;;;;;;;20.40;9.93;;;12.80;99.90;;;;;;4234888;28;20533;-82
2022/06/08 05:44:32;;;;;;;22.35;10.98;;;12.90;99.90;;;;;;4251238;27;20043;-82
2022/06/08 05:46:34;;;;;;;22.73;10.70;;;12.90;99.90;;;;;;4251328;27;20491;-82
2022/06/08 05:48:34;;;;;;;22.17;10.07;;;12.90;99.90;;;;;;4251540;27;20072;-82
2022/06/08 05:50:37;;;;;;;20.90;10.52;;;13.00;99.90;;;;;;4251407;27;20043;-82
2022/06/08 05:52:39;;;;;;;22.05;10.88;;;13.00;99.90;;;;;;4253008;27;20047;-82
2022/06/08 05:54:41;;;;;;;20.88;10.57;;;13.10;99.90;;;;;;4233002;28;20055;-82
2022/06/08 05:56:42;;;;;;;22.45;10.35;;;13.10;99.90;;;;;;4251947;27;20043;-82
2022/06/08 05:58:43;;;;;;;22.73;11.45;;;13.20;99.90;;;;;;4252755;27;20042;-82
2022/06/08 06:00:44;;;;;;;24.50;11.52;;;13.20;99.90;;;;;;4243797;27;20040;-82
2022/06/08 06:02:45;;;;;;;23.20;11.77;;;13.30;99.90;;;;;;4235525;28;20406;-82
2022/06/08 06:04:46;;;;;;;27.50;12.15;;;13.30;99.90;;;;;;4218596;28;20055;-82
2022/06/08 06:06:47;;;;;;;25.83;11.30;;;13.30;99.90;;;;;;4235393;28;20047;-82
2022/06/08 06:08:48;;;;;;;24.52;11.15;;;13.40;99.90;;;;;;4235273;28;20043;-82
2022/06/08 06:10:49;;;;;;;24.63;12.45;;;13.40;99.90;;;;;;4235363;28;20059;-82
2022/06/08 06:12:54;;;;;;;23.63;11.25;;;13.50;99.90;;;;;;4199605;28;20049;-82
2022/06/08 06:14:58;;;;;;;22.85;10.68;;;13.50;99.90;;;;;;4234451;28;20075;-83
2022/06/08 06:16:58;;;;;;;23.00;11.50;;;13.60;99.90;;;;;;4234043;28;20670;-82
2022/06/08 06:18:59;;;;;;;24.10;11.50;;;13.70;99.90;;;;;;4215316;28;20072;-82
2022/06/08 06:21:01;;;;;;;22.83;10.63;;;13.70;99.90;;;;;;4232642;28;20074;-83
2022/06/08 06:23:03;;;;;;;21.77;10.05;;;13.80;99.90;;;;;;4214324;28;20070;-83
2022/06/08 06:25:07;;;;;;;20.42;10.73;;;14.00;99.90;;;;;;4232489;28;20119;-83
2022/06/08 06:27:08;;;;;;;19.48;10.73;;;14.10;99.90;;;;;;4232459;28;20052;-83
2022/06/08 06:29:10;;;;;;;19.27;10.60;;;14.20;99.90;;;;;;4232086;28;20476;-83
2022/06/08 06:31:27;;;;;;;20.30;10.90;;;14.30;99.90;;;;;;4231564;28;20035;-83
2022/06/08 06:33:28;;;;;;;20.00;10.57;;;14.30;99.90;;;;;;4231391;28;20114;-82
2022/06/08 06:35:30;;;;;;;19.88;10.18;;;14.40;99.90;;;;;;4216562;28;20043;-82
2022/06/08 06:37:31;;;;;;;18.88;9.68;;;14.50;99.90;;;;;;4233939;28;20044;-82
2022/06/08 06:39:31;;;;;;;19.42;8.77;;;14.60;99.90;;;;;;4234064;28;20127;-82
2022/06/08 06:41:33;;;;;;;15.32;7.90;;;14.70;99.90;;;;;;4236340;28;20496;-83
2022/06/08 06:43:35;;;;;;;16.95;9.00;;;14.80;99.90;;;;;;4243742;28;20051;-83
2022/06/08 06:45:35;;;;;;;20.65;8.60;;;14.80;99.90;;;;;;4237544;28;20046;-82
2022/06/08 06:47:37;;;;;;;15.45;8.43;;;14.90;99.90;;;;;;4232504;28;20555;-83
2022/06/08 06:49:38;;;;;;;14.90;8.15;;;15.00;99.90;;;;;;4244950;28;20050;-83
2022/06/08 06:51:39;;;;;;;15.38;8.02;;;15.10;99.90;;;;;;4250621;28;20522;-82
2022/06/08 06:53:40;;;;;;;20.40;8.18;;;15.20;99.90;;;;;;4247608;28;20498;-82
2022/06/08 06:55:41;;;;;;;13.45;8.05;;;15.30;99.90;;;;;;4247394;28;20050;-83
2022/06/08 06:57:41;;;;;;;18.95;8.65;;;15.40;99.90;;;;;;4246585;28;20108;-83
2022/06/08 06:59:42;;;;;;;14.68;8.23;;;15.50;99.90;;;;;;4212312;28;20496;-83
2022/06/08 07:01:43;;;;;;;15.63;8.10;;;15.50;99.90;;;;;;4248583;28;20510;-83
2022/06/08 07:03:44;;;;;;;16.52;7.80;;;15.60;99.90;;;;;;4247860;28;20039;-84
2022/06/08 07:05:46;;;;;;;14.10;8.00;;;15.70;99.90;;;;;;4247534;28;20125;-83
2022/06/08 07:07:47;;;;;;;16.13;7.85;;;15.80;99.90;;;;;;4248296;28;20080;-83
2022/06/08 07:09:48;;;;;;;11.75;7.25;;;15.90;99.90;;;;;;4229440;28;20511;-83
2022/06/08 07:11:50;;;;;;;12.95;8.05;;;16.00;99.90;;;;;;4247848;28;20050;-83
2022/06/08 07:13:51;;;;;;;14.85;7.68;;;16.10;99.90;;;;;;4247987;28;20163;-83
2022/06/08 07:15:52;;;;;;;13.35;6.25;;;16.10;99.90;;;;;;4248161;28;20051;-83
2022/06/08 07:17:53;;;;;;;11.80;7.03;;;16.20;99.90;;;;;;4229329;28;20060;-82
2022/06/08 07:19:54;;;;;;;14.68;7.50;;;16.30;99.90;;;;;;4248070;28;20070;-83
2022/06/08 07:21:55;;;;;;;14.35;6.93;;;16.40;99.90;;;;;;4247670;28;20103;-83
2022/06/08 07:23:56;;;;;;;13.07;6.68;;;16.50;99.90;;;;;;4248567;28;20043;-83
2022/06/08 07:25:57;;;;;;;11.07;6.70;;;16.50;99.90;;;;;;4248128;28;20086;-83
2022/06/08 07:27:57;;;;;;;12.93;6.50;;;16.50;99.90;;;;;;4249606;27;20053;-83
2022/06/08 07:29:58;;;;;;;15.05;7.45;;;16.50;99.90;;;;;;4251323;27;20091;-83
2022/06/08 07:32:00;;;;;;;13.43;7.25;;;16.50;99.90;;;;;;4251089;27;20122;-83
2022/06/08 07:34:01;;;;;;;13.50;6.90;;;16.60;99.90;;;;;;4250367;27;20092;-83
2022/06/08 07:36:03;;;;;;;13.55;6.18;;;16.60;99.90;;;;;;4232575;28;20043;-83
2022/06/08 07:38:04;;;;;;;9.77;5.07;;;16.70;99.90;;;;;;4250360;27;20118;-84
2022/06/08 07:40:08;;;;;;;12.38;5.60;;;16.70;99.90;;;;;;4250735;27;20054;-83
2022/06/08 07:42:09;;;;;;;13.63;5.72;;;17.00;99.90;;;;;;4250960;27;20403;-83
2022/06/08 07:44:11;;;;;;;14.88;5.38;;;17.10;99.90;;;;;;4252319;27;20035;-82
2022/06/08 07:46:13;;;;;;;11.02;5.53;;;17.30;99.90;;;;;;4228874;28;20050;-83
2022/06/08 07:50:33;;;;;;;12.25;6.13;;;17.50;99.90;;;;;;4233143;28;20396;-84
2022/06/08 07:52:34;;;;;;;8.00;4.75;;;17.50;99.90;;;;;;4240388;27;20152;-83
2022/06/08 07:54:35;;;;;;;11.43;4.43;;;17.50;99.90;;;;;;4250016;27;20039;-83
2022/06/08 07:56:36;;;;;;;10.00;4.30;;;17.50;99.90;;;;;;4249843;27;20399;-83
2022/06/08 07:58:37;;;;;;;9.85;4.60;;;17.60;99.90;;;;;;4249909;27;20039;-82
2022/06/08 08:00:38;;;;;;;8.05;4.50;;;17.70;99.90;;;;;;4243487;27;20040;-82
2022/06/08 08:02:38;;;;;;;9.00;4.63;;;17.70;99.90;;;;;;4232371;28;20120;-83
2022/06/08 08:04:39;;;;;;;9.38;4.45;;;17.70;99.90;;;;;;4232280;27;20039;-84
2022/06/08 08:06:40;;;;;;;9.75;4.80;;;17.80;99.90;;;;;;4225888;28;20516;-83
2022/06/08 08:08:41;;;;;;;6.65;4.15;;;17.70;99.90;;;;;;4239944;27;20051;-83
2022/06/08 08:10:42;;;;;;;8.57;4.20;;;17.70;99.90;;;;;;4220695;28;20036;-84
2022/06/08 08:12:46;;;;;;;7.57;4.30;;;17.70;99.90;;;;;;4214078;28;20043;-83
2022/06/08 08:14:46;;;;;;;6.05;3.60;;;17.80;99.90;;;;;;4231945;28;20044;-83
2022/06/08 08:16:48;;;;;;;4.90;3.30;;;17.80;99.90;;;;;;4231831;28;20043;-82
2022/06/08 08:18:49;;;;;;;6.85;3.60;;;17.80;99.90;;;;;;4232130;28;20039;-82
2022/06/08 08:20:52;;;;;;;7.10;3.22;;;17.90;99.90;;;;;;4232835;28;20100;-83
2022/06/08 08:22:53;;;;;;;6.18;3.20;;;18.00;99.90;;;;;;4232204;28;20488;-82
2022/06/08 08:24:54;;;;;;;13.80;3.38;;;18.10;99.90;;;;;;4232916;28;20091;-83
2022/06/08 08:26:56;;;;;;;9.90;3.28;;;18.20;99.90;;;;;;4214409;28;20093;-84
2022/06/08 08:28:57;;;;;;;6.57;3.20;;;18.30;99.90;;;;;;4215811;28;20048;-84
2022/06/08 08:30:57;;;;;;;7.30;3.08;;;18.30;99.90;;;;;;4238340;27;20046;-82
2022/06/08 08:32:59;;;;;;;7.97;2.78;;;18.40;99.90;;;;;;4243014;27;20042;-82
2022/06/08 08:35:01;;;;;;;7.70;3.25;;;18.50;99.90;;;;;;4215971;28;20125;-82
2022/06/08 08:37:01;;;;;;;4.10;2.30;;;18.60;99.90;;;;;;4197420;28;20133;-83
2022/06/08 08:39:03;;;;;;;7.27;2.73;;;18.60;99.90;;;;;;4231777;28;20059;-84
2022/06/08 08:42:20;;;;;;;4.15;2.83;;;18.70;99.90;;;;;;4232017;28;20086;-83
2022/06/08 08:43:36;;;;;;;5.68;3.03;;;18.70;99.90;;;;;;4230725;28;20051;-83
2022/06/08 08:45:59;;;;;;;3.83;2.38;;;18.90;99.90;;;;;;4213414;28;20052;-84
2022/06/08 08:48:11;;;;;;;5.18;2.10;;;19.10;99.90;;;;;;4231276;28;20430;-83
2022/06/08 08:50:39;;;;;;;4.80;2.25;;;19.20;99.90;;;;;;4220031;28;20032;-83
2022/06/08 08:52:41;;;;;;;3.60;2.08;;;19.40;99.90;;;;;;4249197;27;20047;-82
2022/06/08 08:54:54;;;;;;;5.03;2.30;;;19.70;99.90;;;;;;4231069;28;20097;-82
2022/06/08 08:57:22;;;;;;;5.05;2.47;;;19.60;99.90;;;;;;4235349;27;20059;-83
2022/06/08 08:59:26;;;;;;;4.75;2.00;;;19.50;99.90;;;;;;4251398;27;20171;-83
2022/06/08 09:01:31;;;;;;;3.75;1.88;;;19.50;99.90;;;;;;4250854;27;20054;-83
2022/06/08 09:03:39;;;;;;;9.27;2.03;;;19.60;99.90;;;;;;4248667;27;20082;-83
2022/06/08 09:05:42;;;;;;;2.95;1.60;;;19.50;99.90;;;;;;4248535;27;20161;-83
2022/06/08 09:07:44;;;;;;;3.78;1.77;;;19.50;99.90;;;;;;4249607;27;20043;-83
2022/06/08 09:09:46;;;;;;;3.50;1.60;;;19.60;99.90;;;;;;4249912;27;20115;-85
2022/06/08 09:11:47;;;;;;;2.55;1.50;;;19.90;99.90;;;;;;4231402;28;20145;-83
2022/06/08 09:13:52;;;;;;;5.10;1.90;;;20.20;99.90;;;;;;4252096;27;20047;-85
2022/06/08 09:15:56;;;;;;;5.07;1.30;;;20.20;99.50;;;;;;4249330;27;20142;-83
2022/06/08 09:17:57;;;;;;;2.15;0.90;;;20.20;98.50;;;;;;4197419;28;20048;-83
2022/06/08 09:19:59;;;;;;;1.80;0.90;;;20.40;99.10;;;;;;4230230;28;20048;-83
2022/06/08 09:22:21;;;;;;;2.40;1.00;;;20.40;98.80;;;;;;4228750;28;20043;-84
2022/06/08 09:24:35;;;;;;;2.25;0.82;;;20.60;97.50;;;;;;4244668;27;20051;-83
2022/06/08 09:26:42;;;;;;;1.48;0.95;;;20.80;96.90;;;;;;4249041;27;20062;-83
2022/06/08 09:28:43;;;;;;;3.55;1.00;;;20.80;97.40;;;;;;4230842;28;20047;-83
2022/06/08 09:30:49;;;;;;;1.90;0.52;;;21.00;97.10;;;;;;4235787;27;20044;-83
2022/06/08 09:33:09;;;;;;;1.27;0.75;;;20.90;96.70;;;;;;4214515;28;20090;-84
2022/06/08 09:35:24;;;;;;;3.08;1.00;;;21.00;94.60;;;;;;4232872;28;20047;-83
2022/06/08 09:37:27;;;;;;;1.77;0.80;;;20.80;96.60;;;;;;4235481;28;20483;-87
2022/06/08 09:39:27;;;;;;;2.17;1.00;;;20.70;96.80;;;;;;4219106;28;20131;-89
2022/06/08 09:41:38;;;;;;;2.22;1.00;;;20.70;97.10;;;;;;4218972;28;20044;-84
2022/06/08 09:43:39;;;;;;;1.40;0.98;;;20.60;97.30;;;;;;4234489;28;20535;-84
2022/06/08 09:46:04;;;;;;;3.10;1.20;;;20.50;97.40;;;;;;4253460;27;20053;-84
2022/06/08 09:51:27;;;;;;;2.33;0.90;;;20.70;95.40;;;;;;4235118;28;20048;-84
2022/06/08 09:53:53;;;;;;;1.50;0.65;;;20.80;96.60;;;;;;4233774;28;20050;-83
2022/06/08 09:56:19;;;;;;;1.60;0.73;;;21.10;94.70;;;;;;4232760;28;20056;-85
2022/06/08 09:58:24;;;;;;;2.15;1.17;;;21.30;95.30;;;;;;4232232;28;20051;-84
2022/06/08 10:00:31;;;;;;;2.55;0.90;;;21.50;95.10;;;;;;4241848;27;20119;-84
2022/06/08 10:02:48;;;;;;;4.25;1.02;;;21.50;94.60;;;;;;4248316;27;20074;-84
2022/06/08 10:05:03;;;;;;;1.25;0.90;;;21.30;93.20;;;;;;4247965;27;20054;-83
2022/06/08 10:07:10;;;;;;;3.00;0.80;;;21.20;94.50;;;;;;4247271;27;20544;-84
2022/06/08 10:09:53;;;;;;;2.55;0.77;;;21.40;94.00;;;;;;4229055;28;20427;-84
2022/06/08 10:12:12;;;;;;;1.45;0.90;;;21.50;95.00;;;;;;4178263;28;20045;-85
2022/06/08 10:14:25;;;;;;;4.15;1.33;;;21.60;94.30;;;;;;4177355;28;20044;-85
2022/06/08 10:16:33;;;;;;;1.67;1.17;;;21.50;91.90;;;;;;4173586;28;20055;-85
2022/06/08 10:18:42;;;;;;;1.80;0.80;;;21.50;93.90;;;;;;4228448;28;20059;-85
2022/06/08 10:20:59;;;;;;;1.33;1.02;;;21.40;94.20;;;;;;4228748;28;20148;-85
2022/06/08 10:23:19;;;;;;;2.65;1.10;;;21.10;93.20;;;;;;4247017;27;20471;-85
2022/06/08 10:25:24;;;;;;;2.58;1.30;;;20.90;94.00;;;;;;4247003;27;20092;-85
2022/06/08 10:27:32;;;;;;;3.50;1.30;;;20.70;94.70;;;;;;4242409;27;20051;-85
2022/06/08 10:29:42;;;;;;;4.75;1.17;;;20.60;95.10;;;;;;4236073;28;20117;-85
2022/06/08 10:31:51;;;;;;;4.45;1.48;;;20.50;94.50;;;;;;4212274;28;20488;-85
2022/06/08 10:33:57;;;;;;;1.65;1.20;;;20.50;95.60;;;;;;4243098;28;20085;-85
2022/06/08 10:35:59;;;;;;;4.50;1.60;;;20.50;95.70;;;;;;4229350;28;20058;-85
2022/06/08 10:38:00;;;;;;;3.25;1.33;;;20.50;95.80;;;;;;4247212;28;20510;-87
2022/06/08 10:40:05;;;;;;;2.83;1.42;;;20.50;96.10;;;;;;4247658;28;20039;-85
2022/06/08 10:44:44;;;;;;;4.28;1.70;;;20.40;95.80;;;;;;4243581;28;20047;-85
2022/06/08 10:46:47;;;;;;;1.70;1.38;;;20.50;95.50;;;;;;4247845;28;20095;-86
2022/06/08 10:48:50;;;;;;;4.53;2.17;;;20.80;95.80;;;;;;4246548;28;20053;-85
2022/06/08 10:51:09;;;;;;;6.88;2.25;;;21.10;95.40;;;;;;4227484;28;20051;-85
2022/06/08 10:55:46;;;;;;;2.75;1.85;;;21.30;93.30;;;;;;4247897;28;19920;-86
2022/06/08 10:57:51;;;;;;;3.83;1.52;;;21.10;94.80;;;;;;4229748;28;20047;-86
2022/06/08 11:00:18;;;;;;;2.83;1.50;;;21.00;94.80;;;;;;4247056;27;20039;-85